Time;durP1;ratioP1;P1;durP2;ratioP2;P2;SDS_P1;SDS_P2;PMS_P1;PMS_P2;Temp;Humidity;BMP_temperature;BMP_pressure;BME280_temperature;BME280_humidity;BME280_pressure;Samples;Min_cycle;Max_cycle;Signal;HPM_P1;HPM_P2
2021/06/23 00:00:05;;;;;;;3.60;3.40;;;20.80;99.90;;;;;;10539091;28;20295;-80
2021/06/23 00:05:15;;;;;;;3.83;3.53;;;20.70;99.90;;;;;;10541114;28;20196;-80
2021/06/23 00:10:19;;;;;;;3.67;3.47;;;20.70;99.90;;;;;;10514403;28;20236;-80
2021/06/23 00:15:21;;;;;;;3.77;3.57;;;20.60;99.90;;;;;;10531501;28;20230;-80
2021/06/23 00:20:25;;;;;;;5.00;4.60;;;20.60;99.90;;;;;;10539709;28;20303;-80
2021/06/23 00:25:29;;;;;;;4.40;4.00;;;20.60;99.90;;;;;;10539032;28;20195;-79
2021/06/23 00:30:31;;;;;;;4.63;4.33;;;20.50;99.90;;;;;;10538715;28;20216;-81
2021/06/23 00:35:35;;;;;;;5.23;4.93;;;20.40;99.90;;;;;;10519806;28;20334;-81
2021/06/23 00:40:37;;;;;;;5.03;4.73;;;20.40;99.90;;;;;;10539337;28;20598;-79
2021/06/23 00:45:40;;;;;;;5.47;4.97;;;20.40;99.90;;;;;;10519882;28;20192;-79
2021/06/23 00:50:44;;;;;;;5.33;4.93;;;20.40;99.90;;;;;;10510661;28;20223;-80
2021/06/23 00:56:09;;;;;;;5.60;5.10;;;20.40;99.90;;;;;;10527877;28;20306;-80
2021/06/23 01:01:11;;;;;;;5.20;4.80;;;20.30;99.90;;;;;;10524194;28;20220;-79
2021/06/23 01:06:15;;;;;;;5.40;4.90;;;20.10;99.90;;;;;;10510176;28;20199;-79
2021/06/23 01:11:19;;;;;;;6.00;5.50;;;20.10;99.90;;;;;;10527245;28;20246;-80
2021/06/23 01:16:22;;;;;;;5.80;5.40;;;20.00;99.90;;;;;;10529117;28;20215;-80
2021/06/23 01:21:27;;;;;;;6.37;5.87;;;20.00;99.90;;;;;;10545786;28;20224;-80
2021/06/23 01:26:31;;;;;;;6.30;5.80;;;19.90;99.90;;;;;;10520784;28;20203;-80
2021/06/23 01:31:35;;;;;;;6.67;6.17;;;19.80;99.90;;;;;;10520630;28;20230;-80
2021/06/23 01:36:37;;;;;;;9.43;5.73;;;19.80;99.90;;;;;;10538019;28;20224;-80
2021/06/23 01:41:41;;;;;;;6.77;6.17;;;19.80;99.90;;;;;;10517981;28;20257;-80
2021/06/23 01:46:44;;;;;;;6.40;5.93;;;19.80;99.90;;;;;;10526510;28;20218;-79
2021/06/23 01:51:48;;;;;;;6.30;5.80;;;19.80;99.90;;;;;;10528357;28;20220;-80
2021/06/23 01:56:52;;;;;;;6.60;5.97;;;19.90;99.90;;;;;;10525983;28;20220;-79
2021/06/23 02:02:14;;;;;;;6.50;6.00;;;19.80;99.90;;;;;;10519695;28;20266;-79
2021/06/23 02:07:51;;;;;;;9.13;6.03;;;19.80;99.90;;;;;;10525455;28;20191;-79
2021/06/23 02:13:37;;;;;;;6.13;5.70;;;19.70;99.90;;;;;;10504837;28;20231;-80
2021/06/23 02:19:05;;;;;;;6.07;5.47;;;19.70;99.90;;;;;;10512816;28;20223;-79
2021/06/23 02:24:29;;;;;;;5.07;4.60;;;19.50;99.90;;;;;;10541124;28;20212;-80
2021/06/23 02:29:38;;;;;;;7.00;4.40;;;19.50;99.90;;;;;;10523670;28;20612;-81
2021/06/23 02:34:45;;;;;;;3.97;3.67;;;19.40;99.90;;;;;;10522728;28;20227;-80
2021/06/23 02:39:58;;;;;;;3.83;3.63;;;19.40;99.90;;;;;;10524918;28;20277;-79
2021/06/23 02:45:02;;;;;;;4.27;4.03;;;19.30;99.90;;;;;;10516634;28;20204;-81
2021/06/23 02:50:07;;;;;;;4.90;4.30;;;19.30;99.90;;;;;;10503284;28;20238;-81
2021/06/23 02:55:30;;;;;;;4.40;4.00;;;19.30;99.90;;;;;;10541753;28;20553;-79
2021/06/23 03:00:33;;;;;;;3.53;3.20;;;19.30;99.90;;;;;;10507282;28;20227;-79
2021/06/23 03:05:38;;;;;;;3.07;2.87;;;19.30;99.90;;;;;;10541982;28;20220;-80
2021/06/23 03:10:41;;;;;;;2.90;2.70;;;19.30;99.90;;;;;;10506161;28;20671;-80
2021/06/23 03:15:44;;;;;;;4.13;3.83;;;19.20;99.90;;;;;;10517208;28;20239;-80
2021/06/23 03:20:57;;;;;;;4.20;3.90;;;19.20;99.90;;;;;;10499391;28;20220;-83
2021/06/23 03:26:00;;;;;;;3.93;3.63;;;19.30;99.90;;;;;;10506617;28;20203;-83
2021/06/23 03:31:03;;;;;;;3.73;3.53;;;19.30;99.90;;;;;;10539434;28;20215;-81
2021/06/23 03:36:12;;;;;;;3.90;3.60;;;19.30;99.90;;;;;;10498641;28;20223;-83
2021/06/23 03:41:14;;;;;;;3.67;3.37;;;19.30;99.90;;;;;;10510838;28;20298;-83
2021/06/23 03:46:19;;;;;;;3.60;3.40;;;19.30;99.90;;;;;;10517356;28;20208;-82
2021/06/23 03:51:23;;;;;;;6.33;4.90;;;19.40;99.90;;;;;;10507539;28;20227;-81
2021/06/23 03:56:25;;;;;;;3.63;3.40;;;19.40;99.90;;;;;;10506098;28;20223;-81
2021/06/23 04:01:28;;;;;;;3.57;3.37;;;19.40;99.90;;;;;;10517885;28;20251;-83
2021/06/23 04:06:46;;;;;;;4.53;4.10;;;19.40;99.90;;;;;;10541032;28;20574;-82
2021/06/23 04:11:52;;;;;;;4.33;3.90;;;19.40;99.90;;;;;;10523804;28;20597;-82
2021/06/23 04:16:55;;;;;;;3.97;3.70;;;19.40;99.90;;;;;;10518970;28;20345;-83
2021/06/23 04:22:01;;;;;;;3.90;3.60;;;19.40;99.90;;;;;;10530282;28;20219;-83
2021/06/23 04:27:06;;;;;;;5.07;4.73;;;19.50;99.90;;;;;;10521198;28;20200;-82
2021/06/23 04:32:13;;;;;;;3.90;3.60;;;19.60;99.90;;;;;;10532385;28;20608;-83
2021/06/23 04:37:22;;;;;;;5.87;4.40;;;19.60;99.90;;;;;;10521441;28;20238;-81
2021/06/23 04:42:25;;;;;;;6.23;4.50;;;19.60;99.90;;;;;;10521738;28;20216;-83
2021/06/23 04:47:27;;;;;;;7.53;4.23;;;19.70;99.90;;;;;;10512721;28;20200;-83
2021/06/23 04:52:31;;;;;;;7.03;4.83;;;19.80;99.90;;;;;;10513688;28;20289;-84
2021/06/23 04:57:34;;;;;;;4.67;4.27;;;19.80;99.90;;;;;;10530933;28;20545;-84
2021/06/23 05:02:37;;;;;;;4.03;3.73;;;19.80;99.90;;;;;;10530513;28;20234;-84
2021/06/23 05:07:40;;;;;;;3.90;3.70;;;19.90;99.90;;;;;;10523235;28;20195;-82
2021/06/23 05:12:42;;;;;;;4.17;3.77;;;20.20;99.90;;;;;;10542965;22;20314;-80
2021/06/23 05:17:45;;;;;;;6.47;3.20;;;20.30;99.90;;;;;;10543625;28;20756;-80
2021/06/23 05:22:50;;;;;;;2.73;2.60;;;20.40;99.90;;;;;;10544231;28;20265;-80
2021/06/23 05:27:52;;;;;;;5.10;3.13;;;20.40;99.90;;;;;;10543060;28;20249;-80
2021/06/23 05:32:54;;;;;;;2.93;2.73;;;20.40;99.90;;;;;;10541694;28;20220;-80
2021/06/23 05:37:57;;;;;;;3.80;3.60;;;20.30;99.90;;;;;;10541528;28;20294;-79
2021/06/23 05:42:59;;;;;;;3.17;2.97;;;20.30;99.90;;;;;;10539039;28;20644;-80
2021/06/23 05:48:02;;;;;;;2.83;2.63;;;20.30;99.90;;;;;;10541458;28;20196;-80
2021/06/23 05:53:05;;;;;;;3.50;2.80;;;20.30;99.90;;;;;;10542423;28;20243;-80
2021/06/23 05:58:08;;;;;;;2.63;2.43;;;20.30;99.90;;;;;;10541247;28;20226;-80
2021/06/23 06:03:10;;;;;;;2.73;2.50;;;20.30;99.90;;;;;;10543484;28;20224;-80
2021/06/23 06:08:13;;;;;;;3.27;2.30;;;20.30;99.90;;;;;;10543974;28;20263;-80
2021/06/23 06:13:15;;;;;;;2.10;2.00;;;20.30;99.90;;;;;;10540035;28;20302;-80
2021/06/23 06:18:18;;;;;;;2.93;2.73;;;20.40;99.90;;;;;;10542808;28;20595;-80
2021/06/23 06:23:21;;;;;;;2.73;2.43;;;20.50;99.90;;;;;;10526538;28;20630;-80
2021/06/23 06:28:23;;;;;;;2.13;2.03;;;20.60;99.90;;;;;;10542563;28;20207;-80
2021/06/23 06:33:25;;;;;;;2.20;2.10;;;20.70;99.90;;;;;;10543593;28;20298;-80
2021/06/23 06:38:29;;;;;;;2.83;2.40;;;20.80;99.90;;;;;;10545002;28;20226;-80
2021/06/23 06:43:31;;;;;;;2.13;2.03;;;20.90;99.90;;;;;;10542889;28;20271;-81
2021/06/23 06:48:33;;;;;;;2.50;2.30;;;21.10;99.90;;;;;;10545432;28;20196;-80
2021/06/23 06:53:37;;;;;;;3.30;3.10;;;21.30;99.90;;;;;;10544393;28;20573;-80
2021/06/23 06:58:39;;;;;;;3.87;2.50;;;21.50;99.90;;;;;;10530619;28;20698;-80
2021/06/23 07:03:41;;;;;;;2.27;2.13;;;21.80;99.90;;;;;;10543993;28;20586;-80
2021/06/23 07:08:45;;;;;;;2.30;2.20;;;22.00;99.90;;;;;;10526989;28;20204;-80
2021/06/23 07:13:47;;;;;;;2.77;2.00;;;22.20;99.90;;;;;;10540889;28;20204;-80
2021/06/23 07:18:49;;;;;;;2.50;2.40;;;22.40;99.90;;;;;;10555296;28;20306;-80
2021/06/23 07:23:57;;;;;;;3.10;2.80;;;22.80;99.90;;;;;;10536888;28;20199;-80
2021/06/23 07:29:01;;;;;;;3.13;2.40;;;23.40;99.90;;;;;;10536276;28;20195;-80
2021/06/23 07:34:16;;;;;;;2.00;1.90;;;23.80;99.90;;;;;;10520519;28;20744;-79
2021/06/23 07:39:20;;;;;;;2.40;2.20;;;24.40;99.90;;;;;;10538477;28;20222;-80
2021/06/23 07:44:27;;;;;;;2.20;2.10;;;25.00;99.90;;;;;;10533509;28;20236;-81
2021/06/23 07:49:31;;;;;;;2.20;2.10;;;25.70;99.90;;;;;;10537421;28;20298;-81
2021/06/23 07:54:51;;;;;;;4.90;1.90;;;26.30;99.90;;;;;;10537214;28;20227;-80
2021/06/23 08:10:36;;;;;;;2.50;2.40;;;27.70;99.90;;;;;;10500848;28;20254;-81
2021/06/23 08:15:41;;;;;;;1.87;1.77;;;28.00;99.90;;;;;;10522211;28;20215;-81
2021/06/23 08:20:43;;;;;;;2.53;2.43;;;28.40;99.90;;;;;;10521357;28;20302;-80
2021/06/23 08:25:47;;;;;;;2.20;2.10;;;28.80;98.30;;;;;;10507251;28;20199;-81
2021/06/23 08:30:49;;;;;;;2.43;2.17;;;29.10;98.20;;;;;;10526173;28;20667;-81
2021/06/23 08:35:52;;;;;;;1.90;1.80;;;29.50;96.80;;;;;;10530683;28;20281;-81
2021/06/23 08:40:55;;;;;;;2.20;2.00;;;29.90;95.80;;;;;;10531311;28;20219;-80
2021/06/23 08:45:58;;;;;;;2.27;2.17;;;29.60;94.80;;;;;;10516350;28;20189;-81
2021/06/23 08:51:06;;;;;;;2.17;2.07;;;28.90;95.70;;;;;;10536696;28;20651;-80
2021/06/23 08:56:10;;;;;;;5.37;2.83;;;28.50;95.20;;;;;;10524523;28;20349;-81
2021/06/23 09:01:12;;;;;;;2.50;2.40;;;28.80;93.90;;;;;;10542319;28;20219;-81
2021/06/23 09:06:14;;;;;;;1.80;1.70;;;29.10;94.00;;;;;;10543562;28;20246;-81
2021/06/23 09:11:20;;;;;;;2.23;2.13;;;29.40;93.10;;;;;;10550537;28;20230;-81
2021/06/23 09:16:22;;;;;;;2.60;2.40;;;30.10;90.80;;;;;;10536549;28;20227;-81
2021/06/23 09:21:24;;;;;;;2.60;2.10;;;30.70;90.00;;;;;;10549707;28;20226;-81
2021/06/23 09:26:35;;;;;;;1.83;1.67;;;30.70;85.40;;;;;;10549548;28;20566;-81
2021/06/23 09:31:55;;;;;;;2.13;2.03;;;31.00;87.70;;;;;;10549772;28;20224;-81
2021/06/23 09:36:59;;;;;;;2.37;2.17;;;31.90;81.90;;;;;;10549771;28;20436;-81
2021/06/23 09:42:03;;;;;;;1.90;1.80;;;32.60;74.60;;;;;;10546902;28;20324;-81
2021/06/23 09:47:07;;;;;;;1.23;1.20;;;33.00;71.60;;;;;;10539922;28;20196;-81
2021/06/23 09:52:13;;;;;;;1.47;1.47;;;33.70;69.10;;;;;;10549295;28;20219;-80
2021/06/23 09:57:18;;;;;;;1.63;1.53;;;35.20;68.00;;;;;;10548816;28;20590;-81
2021/06/23 10:02:23;;;;;;;1.85;1.75;;;37.00;57.60;;;;;;10542043;28;20229;-81
2021/06/23 10:07:44;;;;;;;1.20;1.20;;;38.10;53.40;;;;;;10543336;28;20195;-81
2021/06/23 10:12:48;;;;;;;1.80;1.70;;;38.80;51.20;;;;;;10540936;28;20785;-81
2021/06/23 10:17:51;;;;;;;1.38;1.38;;;40.20;47.40;;;;;;10544765;28;20223;-81
2021/06/23 10:22:53;;;;;;;1.70;1.60;;;40.70;45.70;;;;;;10545181;28;20273;-81
2021/06/23 10:27:58;;;;;;;1.57;1.50;;;40.50;44.40;;;;;;10544866;28;20679;-81
2021/06/23 10:33:01;;;;;;;1.60;1.60;;;37.80;43.90;;;;;;10528166;28;20273;-81
2021/06/23 10:38:04;;;;;;;1.53;1.43;;;35.10;46.90;;;;;;10543880;28;20258;-81
2021/06/23 10:43:15;;;;;;;1.93;1.83;;;33.20;50.00;;;;;;10531369;28;20216;-80
2021/06/23 10:48:18;;;;;;;1.20;1.20;;;31.80;53.00;;;;;;10534003;28;20195;-80
2021/06/23 10:53:33;;;;;;;1.90;1.57;;;30.60;53.50;;;;;;10535416;28;20223;-80
2021/06/23 10:58:40;;;;;;;1.30;1.30;;;29.70;55.90;;;;;;10538868;28;20230;-80
2021/06/23 11:04:00;;;;;;;2.00;1.70;;;29.00;56.40;;;;;;10539397;28;20671;-80
2021/06/23 11:14:17;;;;;;;1.60;1.50;;;28.20;58.10;;;;;;10455939;28;20197;-82
2021/06/23 11:19:20;;;;;;;1.53;1.43;;;28.00;58.90;;;;;;10446518;28;20221;-81
2021/06/23 11:24:22;;;;;;;1.47;1.37;;;27.90;61.00;;;;;;10438927;28;20284;-81
2021/06/23 11:29:30;;;;;;;1.40;1.40;;;27.70;60.70;;;;;;10435252;28;20273;-80
2021/06/23 11:34:53;;;;;;;1.70;1.60;;;27.60;60.20;;;;;;10446343;28;20691;-81
2021/06/23 11:40:20;;;;;;;1.60;1.50;;;27.40;64.50;;;;;;10454430;28;20225;-82
2021/06/23 11:45:23;;;;;;;1.67;1.57;;;27.30;68.20;;;;;;10459499;28;20262;-82
2021/06/23 11:50:25;;;;;;;1.60;1.50;;;27.30;64.00;;;;;;10423774;28;20410;-82
2021/06/23 11:55:29;;;;;;;1.60;1.50;;;27.10;65.30;;;;;;10489157;28;20696;-81
2021/06/23 12:00:34;;;;;;;1.63;1.53;;;27.00;65.00;;;;;;10498768;28;20763;-81
2021/06/23 12:05:37;;;;;;;1.60;1.57;;;27.00;68.00;;;;;;10501255;28;20197;-82
2021/06/23 12:10:40;;;;;;;3.00;1.33;;;27.00;66.20;;;;;;10496919;28;20652;-82
2021/06/23 12:15:43;;;;;;;1.57;1.47;;;27.10;68.00;;;;;;10499889;28;20287;-82
2021/06/23 12:20:46;;;;;;;2.00;1.90;;;27.10;65.20;;;;;;10490729;28;20221;-82
2021/06/23 12:25:51;;;;;;;1.50;1.40;;;27.00;67.50;;;;;;10482997;28;20204;-82
2021/06/23 12:30:54;;;;;;;1.40;1.40;;;26.90;64.20;;;;;;10504735;28;20208;-81
2021/06/23 12:35:56;;;;;;;1.23;1.23;;;26.80;64.30;;;;;;10519819;28;20208;-81
2021/06/23 12:40:59;;;;;;;1.50;1.40;;;26.60;68.80;;;;;;10500509;28;20286;-82
2021/06/23 12:46:02;;;;;;;1.77;1.67;;;26.60;63.60;;;;;;10489057;28;20253;-81
2021/06/23 12:51:07;;;;;;;1.30;1.20;;;26.50;64.30;;;;;;10474529;28;20220;-82
2021/06/23 12:56:09;;;;;;;2.63;1.30;;;26.40;60.50;;;;;;10506431;28;20598;-81
2021/06/23 13:01:14;;;;;;;1.10;1.10;;;26.40;63.20;;;;;;10495897;28;20252;-81
2021/06/23 13:06:17;;;;;;;1.50;1.30;;;26.40;61.10;;;;;;10466928;28;20193;-81
2021/06/23 13:11:19;;;;;;;1.80;1.40;;;26.40;62.00;;;;;;10488259;28;20235;-80
2021/06/23 13:16:22;;;;;;;1.17;1.17;;;26.60;60.60;;;;;;10480088;28;20247;-82
2021/06/23 13:21:25;;;;;;;3.00;2.20;;;26.70;64.20;;;;;;10486164;28;20242;-81
2021/06/23 13:26:27;;;;;;;3.20;2.27;;;26.90;67.40;;;;;;10489261;28;20197;-82
2021/06/23 13:31:31;;;;;;;2.40;2.30;;;26.80;71.70;;;;;;10463840;28;20763;-82
2021/06/23 13:36:33;;;;;;;2.37;2.07;;;26.60;70.90;;;;;;10496763;28;20592;-81
2021/06/23 13:41:35;;;;;;;1.90;1.67;;;26.40;70.90;;;;;;10489808;28;20224;-82
2021/06/23 13:46:38;;;;;;;1.60;1.50;;;26.40;68.90;;;;;;10468434;28;20189;-81
2021/06/23 13:51:41;;;;;;;10.00;2.37;;;26.40;71.10;;;;;;10498383;28;20330;-81
2021/06/23 13:56:43;;;;;;;2.63;1.97;;;26.40;72.60;;;;;;10496485;28;20292;-82
2021/06/23 14:01:47;;;;;;;2.50;2.30;;;26.30;73.00;;;;;;10488424;28;20216;-81
2021/06/23 14:06:49;;;;;;;6.70;2.57;;;26.20;72.80;;;;;;10486150;28;20192;-81
2021/06/23 14:11:51;;;;;;;2.27;1.90;;;26.00;72.80;;;;;;10493115;28;20220;-80
2021/06/23 14:16:55;;;;;;;2.40;2.13;;;26.00;74.10;;;;;;10483754;28;20248;-81
2021/06/23 14:21:57;;;;;;;2.20;2.10;;;26.00;76.10;;;;;;10463681;28;20743;-82
2021/06/23 14:26:59;;;;;;;2.47;2.37;;;26.00;76.70;;;;;;10497059;28;20234;-81
2021/06/23 14:32:03;;;;;;;2.33;2.20;;;26.00;77.30;;;;;;10464971;28;20275;-81
2021/06/23 14:37:05;;;;;;;3.40;3.10;;;25.90;78.50;;;;;;10491663;28;20251;-80
2021/06/23 14:42:08;;;;;;;3.50;1.90;;;25.80;77.90;;;;;;10502726;28;20757;-82
2021/06/23 14:47:12;;;;;;;2.37;2.13;;;25.60;75.20;;;;;;10468465;28;21467;-82
2021/06/23 14:52:15;;;;;;;2.57;2.00;;;25.60;77.30;;;;;;10487470;28;20764;-81
2021/06/23 14:57:17;;;;;;;2.60;2.50;;;25.60;78.30;;;;;;10483906;28;20228;-82
2021/06/23 15:02:21;;;;;;;3.37;3.07;;;25.60;78.40;;;;;;10499006;28;20225;-80
2021/06/23 15:07:24;;;;;;;3.07;2.87;;;25.40;81.70;;;;;;10463232;28;20225;-81
2021/06/23 15:12:26;;;;;;;3.13;2.93;;;25.30;83.10;;;;;;10470815;28;20320;-81
2021/06/23 15:17:30;;;;;;;4.97;4.57;;;25.20;85.80;;;;;;10480916;28;20278;-81
2021/06/23 15:22:32;;;;;;;4.77;4.43;;;25.20;87.00;;;;;;10473443;28;20288;-81
2021/06/23 15:27:34;;;;;;;3.97;3.67;;;25.10;88.50;;;;;;10501491;28;20243;-81
2021/06/23 15:32:38;;;;;;;5.03;4.73;;;25.00;89.80;;;;;;10500001;28;20319;-81
2021/06/23 15:37:40;;;;;;;4.80;4.50;;;24.90;90.90;;;;;;10459797;28;20212;-82
2021/06/23 15:42:43;;;;;;;5.20;4.80;;;24.80;91.00;;;;;;10465387;28;20221;-82
2021/06/23 15:47:47;;;;;;;5.83;5.30;;;24.70;91.60;;;;;;10469016;28;20284;-80
2021/06/23 15:52:50;;;;;;;6.10;4.57;;;24.60;92.00;;;;;;10487844;28;20656;-82
2021/06/23 15:57:52;;;;;;;6.13;5.63;;;24.60;92.50;;;;;;10500792;28;20242;-81
2021/06/23 16:02:56;;;;;;;5.40;5.00;;;24.50;92.70;;;;;;10471940;28;20296;-81
2021/06/23 16:07:58;;;;;;;5.13;4.70;;;24.40;93.10;;;;;;10459957;28;20702;-81
2021/06/23 16:13:00;;;;;;;6.30;5.80;;;24.30;93.40;;;;;;10473558;28;20238;-81
2021/06/23 16:18:04;;;;;;;5.70;5.40;;;24.20;93.70;;;;;;10513912;28;20758;-81
2021/06/23 16:23:07;;;;;;;5.70;5.30;;;24.10;94.30;;;;;;10469652;28;20323;-80
2021/06/23 16:28:09;;;;;;;6.90;6.37;;;24.10;95.60;;;;;;10494812;28;20192;-81
2021/06/23 16:33:14;;;;;;;6.83;6.40;;;24.00;95.40;;;;;;10469778;28;20280;-82
2021/06/23 16:38:23;;;;;;;6.50;6.10;;;24.00;96.60;;;;;;10507300;28;20212;-82
2021/06/23 16:43:25;;;;;;;6.67;6.17;;;24.00;96.80;;;;;;10480827;28;20227;-79
2021/06/23 16:48:29;;;;;;;9.90;8.43;;;23.90;97.40;;;;;;10480568;28;20211;-80
2021/06/23 16:53:31;;;;;;;8.87;8.20;;;23.90;98.70;;;;;;10507167;28;20273;-80
2021/06/23 16:58:34;;;;;;;7.87;7.27;;;23.80;99.90;;;;;;10506093;28;20244;-80
2021/06/23 17:03:38;;;;;;;8.10;7.40;;;23.70;99.90;;;;;;10495895;28;20299;-81
2021/06/23 17:08:40;;;;;;;8.37;7.77;;;23.50;99.90;;;;;;10488791;28;20204;-81
2021/06/23 17:13:42;;;;;;;9.50;8.60;;;23.30;99.90;;;;;;10471104;28;20267;-81
2021/06/23 17:18:46;;;;;;;11.93;10.40;;;23.00;99.90;;;;;;10482199;28;20672;-81
2021/06/23 17:23:48;;;;;;;10.17;9.30;;;22.70;99.90;;;;;;10462303;28;20648;-80
2021/06/23 17:28:50;;;;;;;15.43;13.40;;;22.50;99.90;;;;;;10482241;28;20276;-79
2021/06/23 17:33:54;;;;;;;28.07;17.00;;;22.00;99.90;;;;;;10515980;28;20259;-79
2021/06/23 17:38:56;;;;;;;16.80;15.50;;;21.80;99.90;;;;;;10475563;28;20300;-81
2021/06/23 17:43:58;;;;;;;15.60;14.30;;;21.50;99.90;;;;;;10504974;28;20223;-80
2021/06/23 17:49:02;;;;;;;17.00;15.57;;;21.30;99.90;;;;;;10503644;28;20231;-81
2021/06/23 17:54:05;;;;;;;19.47;17.57;;;21.20;99.90;;;;;;10495650;28;20224;-79
2021/06/23 17:59:07;;;;;;;19.33;17.63;;;20.90;99.90;;;;;;10485143;28;20283;-80
2021/06/23 18:04:10;;;;;;;19.83;17.93;;;20.80;99.90;;;;;;10488736;28;20279;-79
2021/06/23 18:09:12;;;;;;;18.37;16.77;;;20.90;99.90;;;;;;10497537;28;20715;-80
2021/06/23 18:14:15;;;;;;;19.10;17.50;;;20.90;99.90;;;;;;10467771;28;20264;-79
2021/06/23 18:19:19;;;;;;;20.70;18.80;;;20.90;99.90;;;;;;10494183;28;20228;-80
2021/06/23 18:24:21;;;;;;;20.40;18.70;;;20.80;99.90;;;;;;10459670;28;20739;-79
2021/06/23 18:29:23;;;;;;;19.07;17.40;;;20.90;99.90;;;;;;10474947;28;20279;-81
2021/06/23 18:34:27;;;;;;;20.43;18.57;;;20.90;99.90;;;;;;10470783;28;20197;-80
2021/06/23 18:39:29;;;;;;;18.47;16.97;;;21.00;99.90;;;;;;10461612;28;20260;-80
2021/06/23 18:44:32;;;;;;;19.20;17.70;;;21.10;99.90;;;;;;10480694;28;20222;-79
2021/06/23 18:49:35;;;;;;;20.87;18.67;;;21.20;99.90;;;;;;10493185;28;20216;-80
2021/06/23 18:54:38;;;;;;;20.67;18.77;;;21.20;99.90;;;;;;10500516;28;20212;-81
2021/06/23 18:59:40;;;;;;;20.47;18.70;;;21.20;99.90;;;;;;10492721;28;20228;-81
2021/06/23 19:04:44;;;;;;;18.77;17.10;;;21.20;99.90;;;;;;10498170;28;20205;-80
2021/06/23 19:09:46;;;;;;;20.33;18.13;;;21.20;99.90;;;;;;10465410;28;20251;-81
2021/06/23 19:14:48;;;;;;;20.30;18.40;;;21.20;99.90;;;;;;10510057;28;20275;-80
2021/06/23 19:19:51;;;;;;;20.37;18.57;;;21.20;99.90;;;;;;10476633;28;20228;-80
2021/06/23 19:24:54;;;;;;;17.53;16.10;;;21.30;99.90;;;;;;10503624;28;20228;-80
2021/06/23 19:29:56;;;;;;;17.67;16.13;;;21.30;99.90;;;;;;10501156;28;20212;-82
2021/06/23 19:35:00;;;;;;;17.37;15.80;;;21.30;99.90;;;;;;10483880;28;20212;-82
2021/06/23 19:40:02;;;;;;;17.63;16.03;;;21.30;99.90;;;;;;10501355;28;20274;-84
2021/06/23 19:45:06;;;;;;;15.87;14.23;;;21.30;99.90;;;;;;10484647;28;20235;-83
2021/06/23 19:50:11;;;;;;;15.47;14.13;;;21.30;99.90;;;;;;10503901;28;20616;-84
2021/06/23 19:55:16;;;;;;;15.90;14.50;;;21.30;99.90;;;;;;10515627;28;20201;-80
2021/06/23 20:00:20;;;;;;;14.70;13.40;;;21.30;99.90;;;;;;10491834;28;20235;-84
2021/06/23 20:05:26;;;;;;;13.57;12.37;;;21.20;99.90;;;;;;10486676;28;20219;-83
2021/06/23 20:10:28;;;;;;;12.60;11.57;;;21.20;99.90;;;;;;10478298;28;20255;-84
2021/06/23 20:15:30;;;;;;;11.10;10.20;;;21.20;99.90;;;;;;10478202;28;20212;-83
2021/06/23 20:20:34;;;;;;;10.00;9.10;;;21.10;99.90;;;;;;10476695;28;20224;-84
2021/06/23 20:25:36;;;;;;;10.60;9.80;;;21.10;99.90;;;;;;10485212;28;20211;-83
2021/06/23 20:30:38;;;;;;;8.70;8.00;;;21.10;99.90;;;;;;10480283;28;20213;-84
2021/06/23 20:35:43;;;;;;;8.93;8.23;;;21.00;99.90;;;;;;10490490;28;20227;-83
2021/06/23 20:40:45;;;;;;;8.90;8.10;;;20.90;99.90;;;;;;10487656;28;20221;-83
2021/06/23 20:45:48;;;;;;;8.10;7.50;;;20.70;99.90;;;;;;10512901;28;20265;-83
2021/06/23 20:50:51;;;;;;;8.20;7.43;;;20.50;99.90;;;;;;10459489;28;20217;-82
2021/06/23 20:55:53;;;;;;;7.87;7.27;;;20.30;99.90;;;;;;10439702;28;20392;-83
2021/06/23 21:00:56;;;;;;;7.47;6.87;;;20.10;99.90;;;;;;10471059;28;20225;-83
2021/06/23 21:06:01;;;;;;;7.40;6.80;;;20.00;99.90;;;;;;10490065;28;20207;-83
2021/06/23 21:11:04;;;;;;;6.50;5.90;;;19.90;99.90;;;;;;10486986;28;20225;-83
2021/06/23 21:16:07;;;;;;;6.80;6.30;;;19.90;99.90;;;;;;10487493;28;20232;-83
2021/06/23 21:21:11;;;;;;;8.20;7.50;;;19.80;99.90;;;;;;10484191;28;20224;-83
2021/06/23 21:26:15;;;;;;;8.60;7.80;;;19.70;99.90;;;;;;10491440;28;20200;-83
2021/06/23 21:31:19;;;;;;;10.93;7.70;;;19.60;99.90;;;;;;10488777;28;20315;-84
2021/06/23 21:36:25;;;;;;;7.80;7.20;;;19.60;99.90;;;;;;10475243;28;20307;-83
2021/06/23 21:41:33;;;;;;;8.40;7.77;;;19.50;99.90;;;;;;10481841;28;20308;-84
2021/06/23 21:46:38;;;;;;;8.40;7.13;;;19.50;99.90;;;;;;10500632;28;20224;-82
2021/06/23 21:51:48;;;;;;;7.77;7.10;;;19.60;99.90;;;;;;10467486;28;20378;-82
2021/06/23 21:56:51;;;;;;;7.50;6.83;;;19.50;99.90;;;;;;10496122;28;20197;-81
2021/06/23 22:01:53;;;;;;;9.60;7.17;;;19.40;99.90;;;;;;10469077;28;20236;-84
2021/06/23 22:06:56;;;;;;;8.00;7.40;;;19.40;99.90;;;;;;10465361;28;20207;-82
2021/06/23 22:11:58;;;;;;;9.50;8.03;;;19.40;99.90;;;;;;10480743;28;20228;-81
2021/06/23 22:17:01;;;;;;;10.50;9.60;;;19.20;99.90;;;;;;10530191;28;20200;-82
2021/06/23 22:22:05;;;;;;;9.83;9.13;;;18.90;99.90;;;;;;10503409;28;20231;-80
2021/06/23 22:27:08;;;;;;;8.23;7.70;;;18.70;99.90;;;;;;10485360;28;20653;-81
2021/06/23 22:32:10;;;;;;;8.83;8.00;;;18.80;99.90;;;;;;10490939;28;20617;-81
2021/06/23 22:37:14;;;;;;;7.70;7.20;;;18.90;99.90;;;;;;10501306;28;20205;-80
2021/06/23 22:42:20;;;;;;;7.17;6.60;;;19.00;99.90;;;;;;10502716;28;20755;-80
2021/06/23 22:47:33;;;;;;;6.90;6.20;;;18.90;99.90;;;;;;10488895;28;20205;-81
2021/06/23 22:52:51;;;;;;;7.30;6.80;;;18.90;99.90;;;;;;10494224;28;20299;-82
2021/06/23 22:57:55;;;;;;;7.47;6.87;;;18.80;99.90;;;;;;10499922;28;20367;-81
2021/06/23 23:02:59;;;;;;;7.13;6.47;;;18.80;99.90;;;;;;10492953;28;20236;-81
2021/06/23 23:08:04;;;;;;;6.03;5.63;;;18.80;99.90;;;;;;10469199;28;20208;-81
2021/06/23 23:13:08;;;;;;;5.97;5.43;;;18.80;99.90;;;;;;10496268;28;20230;-83
2021/06/23 23:18:10;;;;;;;5.90;5.50;;;18.80;99.90;;;;;;10471401;28;20335;-83
2021/06/23 23:23:13;;;;;;;6.60;6.10;;;18.70;99.90;;;;;;10493971;28;20251;-85
2021/06/23 23:28:15;;;;;;;6.50;6.17;;;18.60;99.90;;;;;;10482448;28;20267;-84
2021/06/23 23:33:17;;;;;;;6.50;5.93;;;18.60;99.90;;;;;;10444500;28;20217;-84
2021/06/23 23:38:21;;;;;;;5.60;5.30;;;18.60;99.90;;;;;;10513744;28;20584;-84
2021/06/23 23:43:23;;;;;;;5.90;5.40;;;18.60;99.90;;;;;;10497704;28;20315;-84
2021/06/23 23:48:25;;;;;;;5.73;5.30;;;18.60;99.90;;;;;;10495022;28;20721;-83
2021/06/23 23:53:29;;;;;;;5.53;5.07;;;18.60;99.90;;;;;;10457271;28;20248;-83
2021/06/23 23:58:31;;;;;;;5.10;4.80;;;18.70;99.90;;;;;;10502590;28;20216;-84
